TimeEDT,TemperatureF,Dew PointF,Humidity,Sea Level PressureIn,VisibilityMPH,Wind Direction,Wind SpeedMPH,Gust SpeedMPH,PrecipitationIn,Events,Conditions,WindDirDegrees,DateUTC
12:51 AM,71.6,64.4,78,29.83,10.0,West,3.5,-,N/A,,Partly Cloudy,260,2012-09-06 04:51:00
1:51 AM,69.1,64.9,87,29.83,10.0,WNW,3.5,-,N/A,,Partly Cloudy,290,2012-09-06 05:51:00
2:51 AM,70.0,64.9,84,29.83,10.0,Calm,Calm,-,N/A,,Partly Cloudy,0,2012-09-06 06:51:00
3:51 AM,69.1,64.9,87,29.83,10.0,WNW,4.6,-,N/A,,Partly Cloudy,300,2012-09-06 07:51:00
4:51 AM,69.1,64.9,87,29.85,10.0,WNW,4.6,-,N/A,,Scattered Clouds,300,2012-09-06 08:51:00
5:51 AM,69.1,64.9,87,29.86,10.0,WNW,4.6,-,N/A,,Mostly Cloudy,290,2012-09-06 09:51:00
6:51 AM,71.1,64.0,78,29.87,10.0,North,5.8,-,N/A,,Mostly Cloudy,360,2012-09-06 10:51:00
7:51 AM,71.1,64.9,81,29.88,10.0,North,5.8,-,N/A,,Mostly Cloudy,10,2012-09-06 11:51:00
8:51 AM,73.0,66.0,79,29.90,10.0,North,8.1,-,N/A,,Overcast,10,2012-09-06 12:51:00
9:51 AM,73.9,66.0,76,29.90,10.0,NNE,5.8,-,N/A,,Overcast,30,2012-09-06 13:51:00
10:51 AM,75.0,66.0,73,29.88,10.0,NE,3.5,-,N/A,,Overcast,50,2012-09-06 14:51:00
11:51 AM,77.0,66.0,69,29.91,10.0,Calm,Calm,-,N/A,,Overcast,0,2012-09-06 15:51:00
12:51 PM,79.0,66.9,66,29.90,10.0,South,4.6,-,N/A,,Overcast,170,2012-09-06 16:51:00
1:51 PM,79.0,64.9,62,29.89,10.0,Calm,Calm,-,N/A,,Overcast,0,2012-09-06 17:51:00
2:51 PM,80.1,66.9,64,29.88,10.0,Calm,Calm,-,N/A,,Overcast,0,2012-09-06 18:51:00
3:51 PM,80.1,66.9,64,29.88,10.0,SSW,5.8,-,N/A,,Overcast,200,2012-09-06 19:51:00
4:51 PM,79.0,66.0,64,29.87,10.0,South,5.8,-,N/A,,Mostly Cloudy,180,2012-09-06 20:51:00
5:51 PM,79.0,68.0,69,29.87,10.0,SSW,9.2,-,N/A,,Mostly Cloudy,200,2012-09-06 21:51:00
6:51 PM,79.0,66.0,64,29.87,10.0,SW,6.9,-,N/A,,Scattered Clouds,220,2012-09-06 22:51:00
7:51 PM,77.0,66.0,69,29.88,10.0,SW,6.9,-,N/A,,Scattered Clouds,220,2012-09-06 23:51:00
8:51 PM,77.0,66.9,71,29.89,10.0,SW,6.9,-,N/A,,Scattered Clouds,230,2012-09-07 00:51:00
9:51 PM,75.0,66.9,76,29.91,10.0,SSW,3.5,-,N/A,,Scattered Clouds,200,2012-09-07 01:51:00
10:51 PM,73.9,69.1,85,29.90,10.0,SSE,4.6,-,N/A,,Scattered Clouds,160,2012-09-07 02:51:00
11:51 PM,73.0,69.1,87,29.89,10.0,SSW,5.8,-,N/A,,Partly Cloudy,200,2012-09-07 03:51:00